SVPL1: Red River at Shreveport Site 2

                                SHEF ID:       SVPL1     Red River at Shreveport Site 2
STATION TYPE:

PRECIP STAGE RIV-FLOW VOLTAGE
in ft cfs volt
Ccp-Rev Ccp-Rev Ccp-Rev Ccp-Rev
(America/Chicago)
08/03 00:00 0.00 13.85 2340 12.84
08/03 01:00 0.00 13.85 2340 12.83
08/03 02:00 0.00 13.86 2384 12.81
08/03 03:00 0.00 13.86 2384 12.78
08/03 04:00 0.00 13.77 1988 12.77
08/03 05:00 0.00 13.83 2252 12.77
08/03 06:00 0.00 13.78 2032 12.77
08/03 07:00 0.00 13.82 2208 12.96
08/03 08:00 0.00 13.82 2208 13.34
08/03 09:00 0.00 13.79 2076 13.05
08/03 10:00 0.00 13.84 2296 13.08
08/03 11:00 0.00 13.82 2208 13.08
08/03 12:00 0.00 13.84 2296 13.08
08/03 13:00 0.00 13.90 2560 13.06
08/03 14:00 0.00 13.88 2472 13.06
08/03 15:00 0.00 13.89 2516 13.08
08/03 16:00 0.00 13.88 2472 13.09
08/03 17:00 0.00 13.79 2076 13.07
08/03 18:00 0.00 13.89 2516 13.06
08/03 19:00 0.00 13.86 2384 12.92
08/03 20:00 0.00 13.84 2296 12.89
08/03 21:00 0.00 13.79 2076 12.87
08/03 22:00 0.00 13.78 2032 12.87
08/03 23:00 0.00 13.79 2076 12.87
Data processed at Tue 04Aug2026 04:24 GMT

NOTICE: If you are parsing this page

Please convert to using our Data API. Starting early 2026 we will be migrating to: https://water.usace.army.mil with modern pages rendered in JavaScript. When this migration completes you will no longer be able to scrape this page! CWMSDataAPI (CDA)

Timeseries IDs (TSIDs)

TSIDs used from left to right in the data table
SHRE.Precip-Inc.Total.1Hour.1Hour.Ccp-Rev
SHRE.Stage.Inst.1Hour.0.Ccp-Rev
SHRE.Flow.Inst.1Hour.0.Ccp-Rev
SHRE.Volt-Battery.Inst.1Hour.0.Ccp-Rev

                            

All information presented herein is the property of the government of the United States of America and may be revised or deleted at any time without prior notice. Dissemination of this information without the expressed written consent of the Public Affairs Office, Tulsa District U.S. Army Corps of Engineers is strictly prohibited. These data are gathered electronically and, as presented, have NOT undergone any form of quality control. These data are NOT guaranteed to be valid or correct.